Time;durP1;ratioP1;P1;durP2;ratioP2;P2;SDS_P1;SDS_P2;PMS_P1;PMS_P2;Temp;Humidity;BMP_temperature;BMP_pressure;BME280_temperature;BME280_humidity;BME280_pressure;Samples;Min_cycle;Max_cycle;Signal;HPM_P1;HPM_P2
2023/02/27 00:00:16;;;;;;;4.15;3.75;;;;;;;;;;5056655;28;20114;-94
2023/02/27 00:02:45;;;;;;;5.03;3.85;;;;;;;;;;5057977;28;20053;-96
2023/02/27 00:05:12;;;;;;;4.95;4.65;;;;;;;;;;5056835;28;20107;-94
2023/02/27 00:07:38;;;;;;;8.23;2.85;;;;;;;;;;5057187;28;20075;-95
2023/02/27 00:10:06;;;;;;;2.72;2.55;;;;;;;;;;5057296;28;20392;-90
2023/02/27 00:12:36;;;;;;;4.43;3.28;;;;;;;;;;5059502;28;20049;-93
2023/02/27 00:15:03;;;;;;;2.55;2.45;;;;;;;;;;5058493;28;20045;-92
2023/02/27 00:17:30;;;;;;;2.55;2.45;;;;;;;;;;5059467;28;20079;-93
2023/02/27 00:19:58;;;;;;;4.03;3.83;;;;;;;;;;5061112;28;20049;-94
2023/02/27 00:22:24;;;;;;;6.05;4.35;;;;;;;;;;5062711;28;20057;-95
2023/02/27 00:24:51;;;;;;;6.38;5.25;;;;;;;;;;5061038;28;20049;-93
2023/02/27 00:27:18;;;;;;;5.07;4.88;;;;;;;;;;5059813;28;20053;-96
2023/02/27 00:29:44;;;;;;;11.25;6.45;;;;;;;;;;5061397;28;20148;-92
2023/02/27 00:32:11;;;;;;;4.45;3.85;;;;;;;;;;5057542;28;20048;-92
2023/02/27 00:34:38;;;;;;;2.97;2.85;;;;;;;;;;5058990;28;20115;-95
2023/02/27 00:37:06;;;;;;;5.47;5.13;;;;;;;;;;5056999;28;20657;-92
2023/02/27 00:39:32;;;;;;;2.85;2.75;;;;;;;;;;5056204;28;20465;-94
2023/02/27 00:41:59;;;;;;;5.80;3.70;;;;;;;;;;5057322;28;20107;-93
2023/02/27 00:44:26;;;;;;;4.18;3.88;;;;;;;;;;5059740;28;20073;-92
2023/02/27 00:46:52;;;;;;;4.30;3.92;;;;;;;;;;5059429;28;20075;-92
2023/02/27 00:49:19;;;;;;;5.57;5.25;;;;;;;;;;5059393;28;20123;-94
2023/02/27 00:51:46;;;;;;;3.20;3.03;;;;;;;;;;5056890;28;20115;-93
2023/02/27 00:54:14;;;;;;;5.22;5.00;;;;;;;;;;5057457;28;20106;-95
2023/02/27 00:56:41;;;;;;;4.60;4.30;;;;;;;;;;5056690;28;20049;-91
2023/02/27 00:59:08;;;;;;;10.02;4.10;;;;;;;;;;5061397;28;20096;-94
2023/02/27 01:01:34;;;;;;;4.32;4.13;;;;;;;;;;5060066;28;20041;-93
2023/02/27 01:04:01;;;;;;;5.90;5.10;;;;;;;;;;5056414;28;20060;-92
2023/02/27 01:06:27;;;;;;;4.30;4.00;;;;;;;;;;5056187;28;20126;-94
2023/02/27 01:08:55;;;;;;;4.30;3.88;;;;;;;;;;5055621;28;20068;-93
2023/02/27 01:11:23;;;;;;;3.78;3.58;;;;;;;;;;5054671;28;20099;-93
2023/02/27 01:13:49;;;;;;;3.28;3.03;;;;;;;;;;5055283;28;20106;-93
2023/02/27 01:16:16;;;;;;;6.60;4.68;;;;;;;;;;5054923;28;20041;-93
2023/02/27 01:18:42;;;;;;;6.35;6.05;;;;;;;;;;5055787;28;20103;-93
2023/02/27 01:21:09;;;;;;;2.90;2.53;;;;;;;;;;5055102;28;20076;-93
2023/02/27 01:23:35;;;;;;;2.05;1.92;;;;;;;;;;5054488;28;20060;-91
2023/02/27 01:26:02;;;;;;;6.20;4.40;;;;;;;;;;5054800;28;20045;-93
2023/02/27 01:28:30;;;;;;;6.63;5.00;;;;;;;;;;5054423;28;20049;-91
2023/02/27 01:30:56;;;;;;;5.32;5.13;;;;;;;;;;5054742;28;20049;-92
2023/02/27 01:33:23;;;;;;;7.05;5.00;;;;;;;;;;5054231;28;20110;-92
2023/02/27 01:35:50;;;;;;;5.72;5.43;;;;;;;;;;5054743;28;20056;-93
2023/02/27 01:38:16;;;;;;;4.03;3.78;;;;;;;;;;5055040;28;20118;-92
2023/02/27 01:40:43;;;;;;;6.28;4.63;;;;;;;;;;5054659;28;20041;-91
2023/02/27 01:43:14;;;;;;;5.50;5.13;;;;;;;;;;5055721;28;20074;-94
2023/02/27 01:45:46;;;;;;;5.15;4.80;;;;;;;;;;5059867;28;20048;-91
2023/02/27 01:48:16;;;;;;;3.45;3.25;;;;;;;;;;5058033;28;20052;-92
2023/02/27 01:50:46;;;;;;;4.68;4.35;;;;;;;;;;5057598;28;20498;-92
2023/02/27 01:53:13;;;;;;;5.40;4.95;;;;;;;;;;5060690;28;20052;-93
2023/02/27 01:55:40;;;;;;;5.47;4.00;;;;;;;;;;5061242;28;20057;-93
2023/02/27 01:58:08;;;;;;;5.10;4.60;;;;;;;;;;5061744;28;20055;-94
2023/02/27 02:00:34;;;;;;;4.60;4.15;;;;;;;;;;5059638;28;20063;-93
2023/02/27 02:03:06;;;;;;;4.40;3.53;;;;;;;;;;5059392;28;20049;-95
2023/02/27 02:05:33;;;;;;;17.13;5.35;;;;;;;;;;5060286;28;20551;-93
2023/02/27 02:07:59;;;;;;;3.35;3.10;;;;;;;;;;5060776;28;20049;-93
2023/02/27 02:10:26;;;;;;;7.82;7.53;;;;;;;;;;5058828;28;20079;-93
2023/02/27 02:12:53;;;;;;;5.20;4.97;;;;;;;;;;5058830;28;20045;-93
2023/02/27 02:15:21;;;;;;;5.72;4.93;;;;;;;;;;5060918;28;20053;-94
2023/02/27 02:17:54;;;;;;;5.38;5.07;;;;;;;;;;5048428;28;20053;-93
2023/02/27 02:20:28;;;;;;;4.70;4.47;;;;;;;;;;5053988;28;20068;-91
2023/02/27 02:23:25;;;;;;;3.88;3.67;;;;;;;;;;5052559;28;20119;-92
2023/02/27 02:26:17;;;;;;;3.38;3.22;;;;;;;;;;4971407;29;20058;-92
2023/02/27 02:29:01;;;;;;;6.68;1.98;;;;;;;;;;4967908;29;20083;-95
2023/02/27 02:31:42;;;;;;;3.05;2.70;;;;;;;;;;4963698;29;20051;-94
2023/02/27 02:34:32;;;;;;;3.47;3.28;;;;;;;;;;4963935;29;20055;-96
2023/02/27 02:37:20;;;;;;;2.95;2.85;;;;;;;;;;4949954;29;20059;-93
2023/02/27 02:40:03;;;;;;;1.83;1.75;;;;;;;;;;4957088;28;20421;-94
2023/02/27 02:42:33;;;;;;;2.22;2.13;;;;;;;;;;4959402;29;20134;-94
2023/02/27 02:45:06;;;;;;;1.73;1.63;;;;;;;;;;4959859;29;20051;-94
2023/02/27 02:47:35;;;;;;;4.78;4.57;;;;;;;;;;4957292;29;20066;-94
2023/02/27 02:50:06;;;;;;;1.90;1.80;;;;;;;;;;4971114;28;20070;-94
2023/02/27 02:52:40;;;;;;;0.70;0.70;;;;;;;;;;4976464;28;20409;-94
2023/02/27 02:55:10;;;;;;;2.22;2.13;;;;;;;;;;4975875;28;20043;-95
2023/02/27 02:57:39;;;;;;;2.40;2.28;;;;;;;;;;4975922;28;20053;-95
2023/02/27 03:00:07;;;;;;;2.33;2.22;;;;;;;;;;5018797;28;20049;-93
2023/02/27 03:02:35;;;;;;;2.70;2.50;;;;;;;;;;5056679;28;20049;-94
2023/02/27 03:05:04;;;;;;;1.70;1.65;;;;;;;;;;5055633;28;20060;-94
2023/02/27 03:07:33;;;;;;;1.73;1.65;;;;;;;;;;5056715;28;20064;-94
2023/02/27 03:10:03;;;;;;;3.08;2.95;;;;;;;;;;5057063;28;20083;-95
2023/02/27 03:12:33;;;;;;;2.45;2.35;;;;;;;;;;5056452;28;20055;-96
2023/02/27 03:15:03;;;;;;;1.23;1.23;;;;;;;;;;5056473;28;20502;-95
2023/02/27 03:17:38;;;;;;;2.38;2.28;;;;;;;;;;5057122;28;20049;-95
2023/02/27 03:20:07;;;;;;;3.47;3.30;;;;;;;;;;5058467;28;20080;-95
2023/02/27 03:22:36;;;;;;;1.75;1.65;;;;;;;;;;5057886;28;20498;-95
2023/02/27 03:25:04;;;;;;;2.33;2.22;;;;;;;;;;5059127;28;20049;-95
2023/02/27 03:27:35;;;;;;;1.88;1.77;;;;;;;;;;5058614;28;20060;-96
2023/02/27 03:30:04;;;;;;;2.03;1.92;;;;;;;;;;5062125;28;20049;-96
2023/02/27 03:32:32;;;;;;;3.35;3.22;;;;;;;;;;5056700;28;20495;-96
2023/02/27 03:34:59;;;;;;;2.20;2.10;;;;;;;;;;5057107;28;20473;-95
2023/02/27 03:37:29;;;;;;;2.53;2.33;;;;;;;;;;5056401;28;20041;-95
2023/02/27 03:40:00;;;;;;;2.33;2.22;;;;;;;;;;5069516;28;20040;-96
2023/02/27 03:42:30;;;;;;;1.90;1.80;;;;;;;;;;5059876;28;20053;-96
2023/02/27 03:45:03;;;;;;;1.65;1.63;;;;;;;;;;5058883;28;20045;-94
2023/02/27 03:47:30;;;;;;;2.70;2.60;;;;;;;;;;5063976;28;20079;-95
2023/02/27 03:49:57;;;;;;;2.25;2.15;;;;;;;;;;5058044;28;20056;-93
2023/02/27 03:52:25;;;;;;;2.33;2.22;;;;;;;;;;5056189;28;20060;-93
2023/02/27 03:54:54;;;;;;;2.40;2.30;;;;;;;;;;5055587;28;20048;-93
2023/02/27 03:57:20;;;;;;;3.38;3.28;;;;;;;;;;5055512;28;20453;-95
2023/02/27 03:59:47;;;;;;;2.22;2.13;;;;;;;;;;5055939;28;20099;-96
2023/02/27 04:02:15;;;;;;;1.85;1.77;;;;;;;;;;5056425;28;20053;-96
2023/02/27 04:04:42;;;;;;;3.22;3.13;;;;;;;;;;5055440;28;20506;-96
2023/02/27 04:07:23;;;;;;;2.92;2.83;;;;;;;;;;5055547;28;20061;-95
2023/02/27 04:10:09;;;;;;;2.75;2.55;;;;;;;;;;5056926;28;20052;-96
2023/02/27 04:12:47;;;;;;;2.90;2.80;;;;;;;;;;5063939;28;20060;-94
2023/02/27 04:15:20;;;;;;;3.38;3.20;;;;;;;;;;5056489;28;20049;-95
2023/02/27 04:17:54;;;;;;;2.92;2.83;;;;;;;;;;5060476;28;20045;-96
2023/02/27 04:20:29;;;;;;;2.97;2.88;;;;;;;;;;5060053;28;20053;-95
2023/02/27 04:22:59;;;;;;;2.17;2.08;;;;;;;;;;5056285;28;20063;-95
2023/02/27 04:25:37;;;;;;;1.73;1.63;;;;;;;;;;5054967;28;20116;-96
2023/02/27 04:28:08;;;;;;;3.30;3.20;;;;;;;;;;5054656;28;20049;-96
2023/02/27 04:30:41;;;;;;;3.70;3.60;;;;;;;;;;5054556;28;20053;-95
2023/02/27 04:33:13;;;;;;;3.42;3.22;;;;;;;;;;5055128;28;20044;-95
2023/02/27 04:35:43;;;;;;;3.78;3.58;;;;;;;;;;5055650;28;20263;-96
2023/02/27 04:38:14;;;;;;;2.28;2.17;;;;;;;;;;5055106;28;20473;-96
2023/02/27 04:40:44;;;;;;;3.05;2.85;;;;;;;;;;5054847;28;20703;-96
2023/02/27 04:43:12;;;;;;;2.80;2.67;;;;;;;;;;5017285;28;20108;-94
2023/02/27 04:45:41;;;;;;;2.45;2.33;;;;;;;;;;5026226;28;20069;-96
2023/02/27 04:48:14;;;;;;;2.55;2.45;;;;;;;;;;5029446;28;20111;-96
2023/02/27 04:50:43;;;;;;;2.13;2.03;;;;;;;;;;5028652;28;20053;-96
2023/02/27 04:53:13;;;;;;;2.17;2.08;;;;;;;;;;5029311;28;20077;-96
2023/02/27 04:55:42;;;;;;;1.70;1.60;;;;;;;;;;5017239;28;20459;-95
2023/02/27 04:58:10;;;;;;;1.58;1.48;;;;;;;;;;5016013;28;20100;-93
2023/02/27 05:00:39;;;;;;;2.35;2.25;;;;;;;;;;5015176;28;20500;-93
2023/02/27 05:03:09;;;;;;;2.08;1.98;;;;;;;;;;5014934;28;20054;-94
2023/02/27 05:05:38;;;;;;;4.95;4.47;;;;;;;;;;5014843;28;20049;-94
2023/02/27 05:08:07;;;;;;;3.08;2.95;;;;;;;;;;5014875;28;20053;-94
2023/02/27 05:10:36;;;;;;;3.00;2.90;;;;;;;;;;5014706;28;20522;-94
2023/02/27 05:13:06;;;;;;;2.35;2.25;;;;;;;;;;5014952;28;20575;-93
2023/02/27 05:15:36;;;;;;;1.85;1.75;;;;;;;;;;5015179;28;20123;-94
2023/02/27 05:18:04;;;;;;;3.50;3.20;;;;;;;;;;5018056;28;20046;-94
2023/02/27 05:20:33;;;;;;;3.72;3.42;;;;;;;;;;5018795;28;20711;-93
2023/02/27 05:23:06;;;;;;;2.50;2.30;;;;;;;;;;5022518;28;20056;-94
2023/02/27 05:25:35;;;;;;;2.35;2.25;;;;;;;;;;5025037;28;20049;-95
2023/02/27 05:28:05;;;;;;;2.53;2.42;;;;;;;;;;5028078;28;20046;-95
2023/02/27 05:30:34;;;;;;;2.58;2.38;;;;;;;;;;5025960;28;20111;-95
2023/02/27 05:33:03;;;;;;;2.78;2.65;;;;;;;;;;5018031;28;20061;-92
2023/02/27 05:35:32;;;;;;;3.88;3.50;;;;;;;;;;5018060;28;20451;-93
2023/02/27 05:38:04;;;;;;;3.15;2.95;;;;;;;;;;5018022;28;20042;-93
2023/02/27 05:40:33;;;;;;;3.08;2.95;;;;;;;;;;5018447;28;20053;-93
2023/02/27 05:43:02;;;;;;;4.65;4.40;;;;;;;;;;5055778;28;20064;-93
2023/02/27 05:45:29;;;;;;;3.40;3.13;;;;;;;;;;5058426;28;20418;-93
2023/02/27 05:47:58;;;;;;;4.57;4.38;;;;;;;;;;5057914;28;20079;-95
2023/02/27 05:50:26;;;;;;;3.50;3.30;;;;;;;;;;5070134;28;20049;-94
2023/02/27 05:52:54;;;;;;;3.80;3.60;;;;;;;;;;5070841;28;20053;-95
2023/02/27 05:55:24;;;;;;;2.55;2.45;;;;;;;;;;5067677;28;20079;-94
2023/02/27 05:57:52;;;;;;;2.83;2.72;;;;;;;;;;5058341;28;20048;-94
2023/02/27 06:00:21;;;;;;;2.95;2.83;;;;;;;;;;5057779;28;20099;-93
2023/02/27 06:02:47;;;;;;;3.33;3.10;;;;;;;;;;5057769;28;20045;-95
2023/02/27 06:05:17;;;;;;;3.20;3.00;;;;;;;;;;5057253;28;20383;-93
2023/02/27 06:07:44;;;;;;;3.05;2.85;;;;;;;;;;5060919;28;20059;-96
2023/02/27 06:10:14;;;;;;;3.65;3.47;;;;;;;;;;5059360;28;20107;-95
2023/02/27 06:12:45;;;;;;;3.05;2.85;;;;;;;;;;5067160;28;20057;-95
2023/02/27 06:15:13;;;;;;;2.30;2.20;;;;;;;;;;5062290;28;20053;-94
2023/02/27 06:17:40;;;;;;;3.30;3.20;;;;;;;;;;5057313;28;20046;-93
2023/02/27 06:20:07;;;;;;;3.78;3.58;;;;;;;;;;5057052;28;20052;-92
2023/02/27 06:22:35;;;;;;;2.05;1.95;;;;;;;;;;5061108;28;20048;-94
2023/02/27 06:25:01;;;;;;;3.25;3.05;;;;;;;;;;5055038;28;20063;-93
2023/02/27 06:27:28;;;;;;;4.15;3.95;;;;;;;;;;5060429;28;21749;-93
2023/02/27 06:29:54;;;;;;;3.78;3.33;;;;;;;;;;5072142;28;20056;-92
2023/02/27 06:32:24;;;;;;;2.42;2.22;;;;;;;;;;5076713;28;20465;-94
2023/02/27 06:34:51;;;;;;;3.03;2.90;;;;;;;;;;5068606;28;20139;-94
2023/02/27 06:37:18;;;;;;;2.65;2.45;;;;;;;;;;5056270;28;20132;-94
2023/02/27 06:39:44;;;;;;;4.07;3.88;;;;;;;;;;5056694;28;20106;-93
2023/02/27 06:42:11;;;;;;;3.80;3.60;;;;;;;;;;5052792;28;20060;-94
2023/02/27 06:44:37;;;;;;;3.10;2.95;;;;;;;;;;5060154;28;20453;-95
2023/02/27 06:47:04;;;;;;;3.47;3.35;;;;;;;;;;5076501;28;20053;-92
2023/02/27 06:49:32;;;;;;;2.90;2.78;;;;;;;;;;5076320;28;20102;-94
2023/02/27 06:51:58;;;;;;;3.65;3.13;;;;;;;;;;5061336;28;20045;-92
2023/02/27 06:54:25;;;;;;;3.97;3.67;;;;;;;;;;5056180;28;20053;-92
2023/02/27 06:56:52;;;;;;;3.63;3.35;;;;;;;;;;5056166;28;20494;-93
2023/02/27 06:59:18;;;;;;;3.75;3.55;;;;;;;;;;5063436;28;20493;-92
2023/02/27 07:01:45;;;;;;;1.95;1.85;;;;;;;;;;5059725;28;20406;-93
2023/02/27 07:04:13;;;;;;;4.80;4.50;;;;;;;;;;5070409;28;20053;-91
2023/02/27 07:06:41;;;;;;;3.15;3.03;;;;;;;;;;5065316;28;20053;-94
2023/02/27 07:09:08;;;;;;;2.55;2.45;;;;;;;;;;5058618;28;20049;-90
2023/02/27 07:11:34;;;;;;;3.38;3.17;;;;;;;;;;5058856;28;20076;-94
2023/02/27 07:14:01;;;;;;;3.75;3.60;;;;;;;;;;5059626;28;20057;-89
2023/02/27 07:16:28;;;;;;;3.80;3.63;;;;;;;;;;5061080;28;20057;-91
2023/02/27 07:18:54;;;;;;;5.47;5.18;;;;;;;;;;5042481;28;20088;-89
2023/02/27 07:21:22;;;;;;;3.38;3.17;;;;;;;;;;5055002;28;20053;-90
2023/02/27 07:23:50;;;;;;;3.42;2.97;;;;;;;;;;5056096;28;20053;-91
2023/02/27 07:26:17;;;;;;;3.97;3.78;;;;;;;;;;5054568;28;20045;-90
2023/02/27 07:28:44;;;;;;;5.18;4.88;;;;;;;;;;5055131;28;20048;-89
2023/02/27 07:31:10;;;;;;;7.13;6.72;;;;;;;;;;5055194;28;20064;-88
2023/02/27 07:33:37;;;;;;;4.72;4.43;;;;;;;;;;5055091;28;20048;-88
2023/02/27 07:36:03;;;;;;;5.15;4.85;;;;;;;;;;5054706;28;20056;-90
2023/02/27 07:38:31;;;;;;;5.00;4.70;;;;;;;;;;5054910;28;20098;-88
2023/02/27 07:40:59;;;;;;;4.22;4.03;;;;;;;;;;5054046;28;20079;-90
2023/02/27 07:43:25;;;;;;;5.57;5.28;;;;;;;;;;5054528;28;20056;-90
2023/02/27 07:45:52;;;;;;;3.20;3.10;;;;;;;;;;5050487;28;20446;-90
2023/02/27 07:48:19;;;;;;;4.32;4.13;;;;;;;;;;5054787;28;20048;-89
2023/02/27 07:50:45;;;;;;;3.10;3.00;;;;;;;;;;5054325;28;20052;-88
2023/02/27 07:53:12;;;;;;;4.00;3.72;;;;;;;;;;5055024;28;20060;-89
2023/02/27 07:55:39;;;;;;;2.70;2.60;;;;;;;;;;5054493;28;20049;-90
2023/02/27 07:58:07;;;;;;;3.67;3.58;;;;;;;;;;5054565;28;20114;-90
2023/02/27 08:00:34;;;;;;;4.13;3.83;;;;;;;;;;5054907;28;20048;-89
2023/02/27 08:03:00;;;;;;;3.72;3.42;;;;;;;;;;5051723;28;20098;-89
2023/02/27 08:05:27;;;;;;;2.72;2.63;;;;;;;;;;5051224;28;20052;-88
2023/02/27 08:07:53;;;;;;;2.28;2.17;;;;;;;;;;5054090;28;20497;-89
2023/02/27 08:10:20;;;;;;;4.05;3.85;;;;;;;;;;5054147;28;20478;-88
2023/02/27 08:12:46;;;;;;;3.63;3.50;;;;;;;;;;5054098;28;20057;-90
2023/02/27 08:15:15;;;;;;;3.67;3.50;;;;;;;;;;5054161;28;20072;-88
2023/02/27 08:17:42;;;;;;;4.35;4.15;;;;;;;;;;5053946;28;20512;-88
2023/02/27 08:20:10;;;;;;;2.08;1.98;;;;;;;;;;5050560;28;20102;-89
2023/02/27 08:22:37;;;;;;;3.40;3.28;;;;;;;;;;5054015;28;20075;-88
2023/02/27 08:25:05;;;;;;;4.38;4.07;;;;;;;;;;5053865;28;20102;-90
2023/02/27 08:27:32;;;;;;;4.07;3.95;;;;;;;;;;5050424;28;20146;-90
2023/02/27 08:29:59;;;;;;;5.22;5.03;;;;;;;;;;5053819;28;20045;-90
2023/02/27 08:32:27;;;;;;;3.25;3.15;;;;;;;;;;5054300;28;20056;-90
2023/02/27 08:34:53;;;;;;;2.63;2.53;;;;;;;;;;5054094;28;20094;-90
2023/02/27 08:37:20;;;;;;;6.45;3.63;;;;;;;;;;5053994;28;20087;-90
2023/02/27 08:39:46;;;;;;;3.78;3.65;;;;;;;;;;5054178;28;20045;-90
2023/02/27 08:42:14;;;;;;;4.22;4.00;;;;;;;;;;5049731;28;20053;-89
2023/02/27 08:44:40;;;;;;;4.95;4.55;;;;;;;;;;5052052;28;20055;-89
2023/02/27 08:47:07;;;;;;;4.68;4.47;;;;;;;;;;5052855;28;20048;-89
2023/02/27 08:49:35;;;;;;;4.95;4.65;;;;;;;;;;5053138;28;20069;-90
2023/02/27 08:52:02;;;;;;;3.95;3.75;;;;;;;;;;5050525;28;20056;-90
2023/02/27 08:54:29;;;;;;;4.47;4.28;;;;;;;;;;5053330;28;20128;-88
2023/02/27 08:56:56;;;;;;;3.95;3.13;;;;;;;;;;5053353;28;20114;-88
2023/02/27 08:59:22;;;;;;;6.18;5.78;;;;;;;;;;5053593;28;20057;-88
2023/02/27 09:01:49;;;;;;;4.13;3.83;;;;;;;;;;5053726;28;20049;-88
2023/02/27 09:04:16;;;;;;;6.80;3.70;;;;;;;;;;5053086;28;20045;-89
2023/02/27 09:06:44;;;;;;;4.40;3.85;;;;;;;;;;5053202;28;20089;-90
2023/02/27 09:09:10;;;;;;;4.97;4.63;;;;;;;;;;5053463;28;20122;-89
2023/02/27 09:11:37;;;;;;;6.53;4.65;;;;;;;;;;5053566;28;20049;-88
2023/02/27 09:14:04;;;;;;;7.43;6.93;;;;;;;;;;5051226;28;20052;-89
2023/02/27 09:16:30;;;;;;;5.85;5.32;;;;;;;;;;5053074;28;20127;-89
2023/02/27 09:18:57;;;;;;;5.97;5.53;;;;;;;;;;5052910;28;20056;-89
2023/02/27 09:21:24;;;;;;;12.02;4.47;;;;;;;;;;5053451;28;20091;-90
2023/02/27 09:23:52;;;;;;;8.43;4.68;;;;;;;;;;5052998;28;20053;-90
2023/02/27 09:26:18;;;;;;;10.57;5.78;;;;;;;;;;5053215;28;20075;-88
2023/02/27 09:28:45;;;;;;;7.20;6.72;;;;;;;;;;5052854;28;20049;-88
2023/02/27 09:31:12;;;;;;;6.50;5.43;;;;;;;;;;5049855;28;20045;-90
2023/02/27 09:33:38;;;;;;;6.72;5.90;;;;;;;;;;5052603;28;20487;-90
2023/02/27 09:36:05;;;;;;;7.80;6.32;;;;;;;;;;5053047;28;20053;-90
2023/02/27 09:38:32;;;;;;;7.40;5.03;;;;;;;;;;5053107;28;20107;-90
2023/02/27 09:41:01;;;;;;;9.30;8.40;;;;;;;;;;5052866;28;20560;-89
2023/02/27 09:43:30;;;;;;;7.00;6.63;;;;;;;;;;5052379;28;20045;-90
2023/02/27 09:45:57;;;;;;;11.07;9.10;;;;;;;;;;5050723;28;20140;-90
2023/02/27 09:48:29;;;;;;;6.90;6.35;;;;;;;;;;5051287;28;20061;-90
2023/02/27 09:50:57;;;;;;;6.32;5.85;;;;;;;;;;5049261;28;20466;-89
2023/02/27 09:53:26;;;;;;;10.45;5.35;;;;;;;;;;5052862;28;20591;-90
2023/02/27 09:55:53;;;;;;;5.88;4.72;;;;;;;;;;5051085;28;20131;-91
2023/02/27 09:58:29;;;;;;;7.95;6.82;;;;;;;;;;5053259;28;20104;-92
2023/02/27 10:00:57;;;;;;;15.95;6.95;;;;;;;;;;5053278;28;20113;-92
2023/02/27 10:03:57;;;;;;;8.40;7.32;;;;;;;;;;5053112;28;20127;-90
2023/02/27 10:06:26;;;;;;;10.52;6.93;;;;;;;;;;4961599;28;20042;-91
2023/02/27 10:09:02;;;;;;;6.15;5.65;;;;;;;;;;4975261;28;20050;-90
2023/02/27 10:11:32;;;;;;;8.15;7.10;;;;;;;;;;4975476;28;20051;-91
2023/02/27 10:14:04;;;;;;;11.57;6.47;;;;;;;;;;4974738;28;20645;-91
2023/02/27 10:16:33;;;;;;;5.20;4.95;;;;;;;;;;4961980;28;20046;-91
2023/02/27 10:19:01;;;;;;;6.95;6.40;;;;;;;;;;4971075;28;20043;-90
2023/02/27 10:21:30;;;;;;;7.07;6.57;;;;;;;;;;4970255;28;20054;-93
2023/02/27 10:23:59;;;;;;;7.75;7.13;;;;;;;;;;4962032;28;20066;-92
2023/02/27 10:26:27;;;;;;;8.88;8.27;;;;;;;;;;4975428;28;20058;-91
2023/02/27 10:28:54;;;;;;;6.38;5.22;;;;;;;;;;4975228;28;20150;-91
2023/02/27 10:31:24;;;;;;;5.05;4.70;;;;;;;;;;4975573;28;20050;-91
2023/02/27 10:33:51;;;;;;;7.07;6.78;;;;;;;;;;4975970;28;20050;-92
2023/02/27 10:36:20;;;;;;;6.35;5.90;;;;;;;;;;4987102;28;20113;-94
2023/02/27 10:38:48;;;;;;;11.27;10.23;;;;;;;;;;5064719;28;20049;-94
2023/02/27 10:41:16;;;;;;;7.68;6.50;;;;;;;;;;5062793;28;20052;-93
2023/02/27 10:43:42;;;;;;;8.45;7.70;;;;;;;;;;5058810;28;20049;-92
2023/02/27 10:46:12;;;;;;;10.07;9.30;;;;;;;;;;5056391;28;20045;-93
2023/02/27 10:48:40;;;;;;;8.85;5.78;;;;;;;;;;5039276;28;20402;-91
2023/02/27 10:51:20;;;;;;;8.02;7.45;;;;;;;;;;5037489;28;20110;-91
2023/02/27 10:53:46;;;;;;;6.50;6.18;;;;;;;;;;5036749;28;20099;-92
2023/02/27 10:56:14;;;;;;;5.47;4.85;;;;;;;;;;5036628;28;20430;-93
2023/02/27 10:58:41;;;;;;;8.38;7.82;;;;;;;;;;5036208;28;20049;-91
2023/02/27 11:01:08;;;;;;;9.80;9.30;;;;;;;;;;5053373;28;20103;-91
2023/02/27 11:03:36;;;;;;;6.97;6.55;;;;;;;;;;5056110;28;20053;-90
2023/02/27 11:06:08;;;;;;;11.63;10.52;;;;;;;;;;5055920;28;20049;-93
2023/02/27 11:08:35;;;;;;;6.22;4.60;;;;;;;;;;5058487;28;20064;-91
2023/02/27 11:11:03;;;;;;;8.85;7.97;;;;;;;;;;5056422;28;20052;-92
2023/02/27 11:13:30;;;;;;;7.90;7.47;;;;;;;;;;5047728;28;20105;-91
2023/02/27 11:16:05;;;;;;;11.30;10.25;;;;;;;;;;5035336;28;20049;-91
2023/02/27 11:18:32;;;;;;;13.52;10.30;;;;;;;;;;5036389;28;20057;-93
2023/02/27 11:24:00;;;;;;;19.85;8.80;;;;;;;;;;5035628;28;20147;-91
2023/02/27 11:26:28;;;;;;;7.55;6.90;;;;;;;;;;5035517;28;20061;-92
2023/02/27 11:29:06;;;;;;;10.43;6.65;;;;;;;;;;5049629;28;20044;-92
2023/02/27 11:31:33;;;;;;;12.00;10.60;;;;;;;;;;5055527;28;20141;-91
2023/02/27 11:34:00;;;;;;;9.98;9.48;;;;;;;;;;5055318;28;20045;-92
2023/02/27 11:36:39;;;;;;;11.00;7.70;;;;;;;;;;5055450;28;20053;-90
2023/02/27 11:39:06;;;;;;;6.68;6.22;;;;;;;;;;5055113;28;20128;-92
2023/02/27 11:41:34;;;;;;;9.02;7.00;;;;;;;;;;5034754;28;20053;-92
2023/02/27 11:44:02;;;;;;;5.97;4.35;;;;;;;;;;5035204;28;20403;-91
2023/02/27 11:46:28;;;;;;;7.18;6.63;;;;;;;;;;5035514;28;20091;-93
2023/02/27 11:49:00;;;;;;;9.77;6.15;;;;;;;;;;5053669;28;20051;-92
2023/02/27 11:51:32;;;;;;;9.07;8.20;;;;;;;;;;5054727;28;20053;-92
2023/02/27 11:54:11;;;;;;;9.30;8.48;;;;;;;;;;5054983;28;20068;-92
2023/02/27 11:56:41;;;;;;;11.82;5.22;;;;;;;;;;5054609;28;20430;-93
2023/02/27 11:59:15;;;;;;;12.18;5.03;;;;;;;;;;5054850;28;20057;-93
2023/02/27 12:01:44;;;;;;;6.97;6.22;;;;;;;;;;5054760;28;20053;-91
2023/02/27 12:04:14;;;;;;;7.10;6.53;;;;;;;;;;5055509;28;20052;-91
2023/02/27 12:06:42;;;;;;;6.60;6.10;;;;;;;;;;5055290;28;20045;-91
2023/02/27 12:09:19;;;;;;;7.35;6.88;;;;;;;;;;5054835;28;20045;-92
2023/02/27 12:11:46;;;;;;;6.65;6.28;;;;;;;;;;5054645;28;20048;-92
2023/02/27 12:14:16;;;;;;;10.02;8.18;;;;;;;;;;5054814;28;20075;-90
2023/02/27 12:16:44;;;;;;;6.93;6.55;;;;;;;;;;5054272;28;20482;-90
2023/02/27 12:19:15;;;;;;;10.43;6.43;;;;;;;;;;5054300;28;20797;-91
2023/02/27 12:21:43;;;;;;;19.13;9.18;;;;;;;;;;5054521;28;20045;-91
2023/02/27 12:24:16;;;;;;;9.68;7.03;;;;;;;;;;5054680;28;20114;-91
2023/02/27 12:26:45;;;;;;;4.70;4.30;;;;;;;;;;5053911;28;20049;-90
2023/02/27 12:29:16;;;;;;;6.53;4.88;;;;;;;;;;5054067;28;20052;-91
2023/02/27 12:31:47;;;;;;;12.25;5.85;;;;;;;;;;5054842;28;20124;-91
2023/02/27 12:34:13;;;;;;;;;;;;;;;;;;5058399;28;20112;-94
2023/02/27 12:36:40;;;;;;;6.90;6.57;;;;;;;;;;5058772;28;19927;-91
2023/02/27 12:39:15;;;;;;;5.30;5.00;;;;;;;;;;5058443;28;20049;-93
2023/02/27 12:41:48;;;;;;;6.90;5.22;;;;;;;;;;5058897;28;20056;-91
2023/02/27 12:44:28;;;;;;;6.32;5.80;;;;;;;;;;5059057;28;20053;-91
2023/02/27 12:46:58;;;;;;;9.35;7.68;;;;;;;;;;5059250;28;20067;-91
2023/02/27 12:49:30;;;;;;;9.15;6.05;;;;;;;;;;5060949;28;20052;-91
2023/02/27 12:52:04;;;;;;;9.38;8.60;;;;;;;;;;5080763;28;20040;-91
2023/02/27 12:54:35;;;;;;;15.68;7.15;;;;;;;;;;5079272;28;20059;-93
2023/02/27 12:57:10;;;;;;;13.02;8.75;;;;;;;;;;5071902;28;20049;-93
2023/02/27 12:59:45;;;;;;;13.57;6.07;;;;;;;;;;5058763;28;20048;-91
2023/02/27 13:02:20;;;;;;;6.82;6.43;;;;;;;;;;5071540;28;20508;-92
2023/02/27 13:04:48;;;;;;;5.85;5.35;;;;;;;;;;5057228;28;20084;-94
2023/02/27 13:07:21;;;;;;;9.88;9.30;;;;;;;;;;5056312;28;20059;-93
2023/02/27 13:09:50;;;;;;;6.82;6.28;;;;;;;;;;5059323;28;20052;-93
2023/02/27 13:12:23;;;;;;;9.70;7.28;;;;;;;;;;5056547;28;20053;-91
2023/02/27 13:14:53;;;;;;;19.33;6.38;;;;;;;;;;5055665;28;20060;-92
2023/02/27 13:17:23;;;;;;;6.32;5.78;;;;;;;;;;5056565;28;20418;-91
2023/02/27 13:19:51;;;;;;;7.53;5.97;;;;;;;;;;5056720;28;20486;-90
2023/02/27 13:22:23;;;;;;;11.38;6.18;;;;;;;;;;5055747;28;20177;-92
2023/02/27 13:24:51;;;;;;;12.75;5.05;;;;;;;;;;5055455;28;20048;-91
2023/02/27 13:27:23;;;;;;;9.55;5.45;;;;;;;;;;5054465;28;20064;-91
2023/02/27 13:29:55;;;;;;;7.95;4.38;;;;;;;;;;5053552;28;20124;-93
2023/02/27 13:32:24;;;;;;;6.13;5.25;;;;;;;;;;5054274;28;20135;-91
2023/02/27 13:34:53;;;;;;;9.20;4.75;;;;;;;;;;5054006;28;20053;-92
2023/02/27 13:37:19;;;;;;;14.73;5.95;;;;;;;;;;5054632;28;20053;-92
2023/02/27 13:39:54;;;;;;;7.85;7.45;;;;;;;;;;5057615;28;20052;-91
2023/02/27 13:42:54;;;;;;;8.95;4.28;;;;;;;;;;5057994;28;20422;-91
2023/02/27 13:45:39;;;;;;;7.28;6.55;;;;;;;;;;4978742;28;20055;-92
2023/02/27 13:48:31;;;;;;;7.50;6.97;;;;;;;;;;4977657;28;20058;-92
2023/02/27 13:50:58;;;;;;;8.32;5.22;;;;;;;;;;4977237;28;20050;-92
2023/02/27 13:53:24;;;;;;;12.73;6.00;;;;;;;;;;4977869;28;20493;-94
2023/02/27 13:55:52;;;;;;;8.35;6.10;;;;;;;;;;4979727;28;20050;-93
2023/02/27 13:58:22;;;;;;;8.57;6.75;;;;;;;;;;4980909;28;20102;-91
2023/02/27 14:00:56;;;;;;;10.75;5.40;;;;;;;;;;4982306;28;20074;-92
2023/02/27 14:03:25;;;;;;;7.32;6.78;;;;;;;;;;4983706;28;20515;-91
2023/02/27 14:05:52;;;;;;;9.43;8.77;;;;;;;;;;4984478;28;20118;-92
2023/02/27 14:08:21;;;;;;;8.68;7.22;;;;;;;;;;4984238;28;20118;-93
2023/02/27 14:10:53;;;;;;;12.80;6.88;;;;;;;;;;4979398;28;20047;-92
2023/02/27 14:13:38;;;;;;;7.38;6.60;;;;;;;;;;4981240;28;20051;-94
2023/02/27 14:16:06;;;;;;;6.00;5.15;;;;;;;;;;5029521;28;20394;-92
2023/02/27 14:18:54;;;;;;;7.75;5.60;;;;;;;;;;5077721;28;20072;-92
2023/02/27 14:21:40;;;;;;;10.25;5.25;;;;;;;;;;5078526;28;20080;-91
2023/02/27 14:24:11;;;;;;;12.23;5.32;;;;;;;;;;5077276;28;20044;-91
2023/02/27 14:26:38;;;;;;;11.60;6.60;;;;;;;;;;5078238;28;20421;-94
2023/02/27 14:29:05;;;;;;;6.32;5.82;;;;;;;;;;5079801;28;20052;-91
2023/02/27 14:31:33;;;;;;;14.23;8.38;;;;;;;;;;5065689;28;20049;-92
2023/02/27 14:34:04;;;;;;;11.40;9.90;;;;;;;;;;5057648;28;20095;-91
2023/02/27 14:36:33;;;;;;;8.77;6.47;;;;;;;;;;5058560;28;20139;-92
2023/02/27 14:39:00;;;;;;;6.75;6.25;;;;;;;;;;5057566;28;20060;-91
2023/02/27 14:41:31;;;;;;;7.78;7.18;;;;;;;;;;5057149;28;20494;-90
2023/02/27 14:43:58;;;;;;;13.75;9.32;;;;;;;;;;5057575;28;20103;-93
2023/02/27 14:46:28;;;;;;;8.70;8.23;;;;;;;;;;5057127;28;20057;-93
2023/02/27 14:48:55;;;;;;;5.72;5.30;;;;;;;;;;5057324;28;20045;-90
2023/02/27 14:51:24;;;;;;;9.48;8.55;;;;;;;;;;5056599;28;20049;-92
2023/02/27 14:54:01;;;;;;;6.07;5.35;;;;;;;;;;5057363;28;20041;-90
2023/02/27 14:56:27;;;;;;;15.73;5.75;;;;;;;;;;5056989;28;20049;-93